sensor_id;sensor_type;location;lat;lon;timestamp;P1;durP1;ratioP1;P2;durP2;ratioP2
60851;SDS011;48553;50.766;2.900;2023-04-06T00:01:41;37.40;;;16.27;;
60851;SDS011;48553;50.766;2.900;2023-04-06T00:04:41;34.55;;;15.65;;
60851;SDS011;48553;50.766;2.900;2023-04-06T00:07:42;35.72;;;15.77;;
60851;SDS011;48553;50.766;2.900;2023-04-06T00:10:42;32.17;;;15.85;;
60851;SDS011;48553;50.766;2.900;2023-04-06T00:13:43;34.30;;;17.10;;
60851;SDS011;48553;50.766;2.900;2023-04-06T00:16:43;34.70;;;16.50;;
60851;SDS011;48553;50.766;2.900;2023-04-06T00:19:43;37.15;;;16.95;;
60851;SDS011;48553;50.766;2.900;2023-04-06T00:22:44;34.67;;;16.20;;
60851;SDS011;48553;50.766;2.900;2023-04-06T00:25:45;35.63;;;15.50;;
60851;SDS011;48553;50.766;2.900;2023-04-06T00:28:45;34.47;;;16.20;;
60851;SDS011;48553;50.766;2.900;2023-04-06T00:31:46;38.38;;;17.02;;
60851;SDS011;48553;50.766;2.900;2023-04-06T00:34:46;37.25;;;17.40;;
60851;SDS011;48553;50.766;2.900;2023-04-06T00:37:47;33.38;;;16.17;;
60851;SDS011;48553;50.766;2.900;2023-04-06T00:40:50;37.95;;;17.58;;
60851;SDS011;48553;50.766;2.900;2023-04-06T00:43:50;34.05;;;16.27;;
60851;SDS011;48553;50.766;2.900;2023-04-06T00:46:51;35.15;;;16.92;;
60851;SDS011;48553;50.766;2.900;2023-04-06T00:49:52;37.58;;;17.27;;
60851;SDS011;48553;50.766;2.900;2023-04-06T00:52:54;35.28;;;17.10;;
60851;SDS011;48553;50.766;2.900;2023-04-06T00:55:55;34.72;;;16.75;;
60851;SDS011;48553;50.766;2.900;2023-04-06T00:58:55;34.55;;;16.60;;
60851;SDS011;48553;50.766;2.900;2023-04-06T01:01:56;36.80;;;16.30;;
60851;SDS011;48553;50.766;2.900;2023-04-06T01:04:56;31.73;;;16.45;;
60851;SDS011;48553;50.766;2.900;2023-04-06T01:07:57;32.72;;;15.82;;
60851;SDS011;48553;50.766;2.900;2023-04-06T01:10:58;34.53;;;16.00;;
60851;SDS011;48553;50.766;2.900;2023-04-06T01:14:00;32.42;;;16.05;;
60851;SDS011;48553;50.766;2.900;2023-04-06T01:17:01;33.80;;;15.60;;
60851;SDS011;48553;50.766;2.900;2023-04-06T01:20:01;34.42;;;15.82;;
60851;SDS011;48553;50.766;2.900;2023-04-06T01:23:02;30.30;;;15.25;;
60851;SDS011;48553;50.766;2.900;2023-04-06T01:26:02;32.58;;;15.48;;
60851;SDS011;48553;50.766;2.900;2023-04-06T01:29:03;31.52;;;15.60;;
60851;SDS011;48553;50.766;2.900;2023-04-06T01:32:03;30.90;;;14.80;;
60851;SDS011;48553;50.766;2.900;2023-04-06T01:35:04;30.80;;;15.38;;
60851;SDS011;48553;50.766;2.900;2023-04-06T01:38:05;29.98;;;14.82;;
60851;SDS011;48553;50.766;2.900;2023-04-06T01:41:05;30.25;;;14.57;;
60851;SDS011;48553;50.766;2.900;2023-04-06T01:44:05;29.38;;;14.10;;
60851;SDS011;48553;50.766;2.900;2023-04-06T01:47:06;29.02;;;14.93;;
60851;SDS011;48553;50.766;2.900;2023-04-06T01:50:06;27.45;;;14.07;;
60851;SDS011;48553;50.766;2.900;2023-04-06T01:53:07;30.08;;;13.55;;
60851;SDS011;48553;50.766;2.900;2023-04-06T01:56:07;26.60;;;13.50;;
60851;SDS011;48553;50.766;2.900;2023-04-06T01:59:08;26.23;;;13.35;;
60851;SDS011;48553;50.766;2.900;2023-04-06T02:02:08;26.85;;;13.75;;
60851;SDS011;48553;50.766;2.900;2023-04-06T02:05:09;25.70;;;12.38;;
60851;SDS011;48553;50.766;2.900;2023-04-06T02:08:10;25.83;;;12.85;;
60851;SDS011;48553;50.766;2.900;2023-04-06T02:11:10;25.52;;;11.90;;
60851;SDS011;48553;50.766;2.900;2023-04-06T02:14:11;24.42;;;12.20;;
60851;SDS011;48553;50.766;2.900;2023-04-06T02:17:11;21.98;;;11.25;;
60851;SDS011;48553;50.766;2.900;2023-04-06T02:20:11;25.08;;;11.98;;
60851;SDS011;48553;50.766;2.900;2023-04-06T02:23:12;24.33;;;12.00;;
60851;SDS011;48553;50.766;2.900;2023-04-06T02:26:13;26.10;;;12.02;;
60851;SDS011;48553;50.766;2.900;2023-04-06T02:29:13;23.13;;;11.90;;
60851;SDS011;48553;50.766;2.900;2023-04-06T02:32:14;22.75;;;11.88;;
60851;SDS011;48553;50.766;2.900;2023-04-06T02:35:14;23.30;;;11.45;;
60851;SDS011;48553;50.766;2.900;2023-04-06T02:38:15;24.67;;;12.32;;
60851;SDS011;48553;50.766;2.900;2023-04-06T02:41:15;21.25;;;11.55;;
60851;SDS011;48553;50.766;2.900;2023-04-06T02:44:16;25.33;;;12.02;;
60851;SDS011;48553;50.766;2.900;2023-04-06T02:47:16;25.70;;;12.20;;
60851;SDS011;48553;50.766;2.900;2023-04-06T02:50:17;24.02;;;11.80;;
60851;SDS011;48553;50.766;2.900;2023-04-06T02:53:17;21.95;;;11.70;;
60851;SDS011;48553;50.766;2.900;2023-04-06T02:56:18;25.98;;;11.55;;
60851;SDS011;48553;50.766;2.900;2023-04-06T02:59:19;24.85;;;12.00;;
60851;SDS011;48553;50.766;2.900;2023-04-06T03:02:19;23.40;;;11.40;;
60851;SDS011;48553;50.766;2.900;2023-04-06T03:05:19;20.35;;;11.68;;
60851;SDS011;48553;50.766;2.900;2023-04-06T03:08:20;25.90;;;11.80;;
60851;SDS011;48553;50.766;2.900;2023-04-06T03:11:20;23.23;;;11.65;;
60851;SDS011;48553;50.766;2.900;2023-04-06T03:14:21;24.02;;;12.13;;
60851;SDS011;48553;50.766;2.900;2023-04-06T03:17:22;22.67;;;12.43;;
60851;SDS011;48553;50.766;2.900;2023-04-06T03:20:22;22.15;;;11.65;;
60851;SDS011;48553;50.766;2.900;2023-04-06T03:23:23;21.05;;;11.77;;
60851;SDS011;48553;50.766;2.900;2023-04-06T03:26:23;22.50;;;12.00;;
60851;SDS011;48553;50.766;2.900;2023-04-06T03:29:23;21.05;;;11.90;;
60851;SDS011;48553;50.766;2.900;2023-04-06T03:32:24;20.40;;;11.52;;
60851;SDS011;48553;50.766;2.900;2023-04-06T03:35:24;22.27;;;11.32;;
60851;SDS011;48553;50.766;2.900;2023-04-06T03:38:25;22.33;;;11.43;;
60851;SDS011;48553;50.766;2.900;2023-04-06T03:41:25;23.75;;;11.80;;
60851;SDS011;48553;50.766;2.900;2023-04-06T03:44:26;21.55;;;11.10;;
60851;SDS011;48553;50.766;2.900;2023-04-06T03:47:26;19.83;;;10.70;;
60851;SDS011;48553;50.766;2.900;2023-04-06T03:50:27;24.42;;;11.00;;
60851;SDS011;48553;50.766;2.900;2023-04-06T03:53:27;22.15;;;11.02;;
60851;SDS011;48553;50.766;2.900;2023-04-06T03:56:27;20.23;;;10.30;;
60851;SDS011;48553;50.766;2.900;2023-04-06T03:59:28;19.73;;;9.65;;
60851;SDS011;48553;50.766;2.900;2023-04-06T04:02:28;19.38;;;9.82;;
60851;SDS011;48553;50.766;2.900;2023-04-06T04:05:29;18.98;;;9.55;;
60851;SDS011;48553;50.766;2.900;2023-04-06T04:08:30;17.80;;;8.80;;
60851;SDS011;48553;50.766;2.900;2023-04-06T04:11:30;18.23;;;8.73;;
60851;SDS011;48553;50.766;2.900;2023-04-06T04:14:31;18.73;;;8.25;;
60851;SDS011;48553;50.766;2.900;2023-04-06T04:17:31;15.18;;;7.95;;
60851;SDS011;48553;50.766;2.900;2023-04-06T04:20:31;15.60;;;7.93;;
60851;SDS011;48553;50.766;2.900;2023-04-06T04:23:32;15.75;;;7.72;;
60851;SDS011;48553;50.766;2.900;2023-04-06T04:26:33;15.65;;;7.57;;
60851;SDS011;48553;50.766;2.900;2023-04-06T04:29:33;15.07;;;7.65;;
60851;SDS011;48553;50.766;2.900;2023-04-06T04:32:33;15.35;;;7.45;;
60851;SDS011;48553;50.766;2.900;2023-04-06T04:35:34;13.10;;;7.10;;
60851;SDS011;48553;50.766;2.900;2023-04-06T04:38:35;13.85;;;7.18;;
60851;SDS011;48553;50.766;2.900;2023-04-06T04:41:35;12.85;;;7.13;;
60851;SDS011;48553;50.766;2.900;2023-04-06T04:44:36;13.57;;;7.18;;
60851;SDS011;48553;50.766;2.900;2023-04-06T04:47:37;12.70;;;7.53;;
60851;SDS011;48553;50.766;2.900;2023-04-06T04:50:37;15.13;;;7.22;;
60851;SDS011;48553;50.766;2.900;2023-04-06T04:53:38;12.60;;;6.93;;
60851;SDS011;48553;50.766;2.900;2023-04-06T04:56:38;16.00;;;7.00;;
60851;SDS011;48553;50.766;2.900;2023-04-06T04:59:38;13.30;;;7.13;;
60851;SDS011;48553;50.766;2.900;2023-04-06T05:02:39;13.30;;;6.82;;
60851;SDS011;48553;50.766;2.900;2023-04-06T05:05:39;14.68;;;6.82;;
60851;SDS011;48553;50.766;2.900;2023-04-06T05:08:40;12.77;;;6.05;;
60851;SDS011;48553;50.766;2.900;2023-04-06T05:11:41;12.63;;;6.25;;
60851;SDS011;48553;50.766;2.900;2023-04-06T05:14:41;13.90;;;6.18;;
60851;SDS011;48553;50.766;2.900;2023-04-06T05:17:42;11.27;;;5.70;;
60851;SDS011;48553;50.766;2.900;2023-04-06T05:20:42;10.65;;;5.38;;
60851;SDS011;48553;50.766;2.900;2023-04-06T05:23:43;10.30;;;5.68;;
60851;SDS011;48553;50.766;2.900;2023-04-06T05:26:43;11.48;;;5.30;;
60851;SDS011;48553;50.766;2.900;2023-04-06T05:29:44;8.20;;;4.55;;
60851;SDS011;48553;50.766;2.900;2023-04-06T05:32:45;9.43;;;4.20;;
60851;SDS011;48553;50.766;2.900;2023-04-06T05:35:45;10.48;;;4.82;;
60851;SDS011;48553;50.766;2.900;2023-04-06T05:38:46;9.63;;;4.35;;
60851;SDS011;48553;50.766;2.900;2023-04-06T05:41:48;8.02;;;4.13;;
60851;SDS011;48553;50.766;2.900;2023-04-06T05:44:49;8.60;;;4.13;;
60851;SDS011;48553;50.766;2.900;2023-04-06T05:47:50;8.27;;;3.90;;
60851;SDS011;48553;50.766;2.900;2023-04-06T05:50:50;7.35;;;4.05;;
60851;SDS011;48553;50.766;2.900;2023-04-06T05:53:50;7.43;;;3.97;;
60851;SDS011;48553;50.766;2.900;2023-04-06T05:56:51;7.13;;;3.83;;
60851;SDS011;48553;50.766;2.900;2023-04-06T05:59:51;9.20;;;4.28;;
60851;SDS011;48553;50.766;2.900;2023-04-06T06:02:52;8.65;;;4.10;;
60851;SDS011;48553;50.766;2.900;2023-04-06T06:05:52;7.88;;;4.15;;
60851;SDS011;48553;50.766;2.900;2023-04-06T06:08:53;9.48;;;4.20;;
60851;SDS011;48553;50.766;2.900;2023-04-06T06:11:53;7.63;;;3.92;;
60851;SDS011;48553;50.766;2.900;2023-04-06T06:14:54;10.45;;;4.30;;
60851;SDS011;48553;50.766;2.900;2023-04-06T06:17:55;9.98;;;4.50;;
60851;SDS011;48553;50.766;2.900;2023-04-06T06:20:55;7.63;;;4.38;;
60851;SDS011;48553;50.766;2.900;2023-04-06T06:23:56;9.55;;;4.78;;
60851;SDS011;48553;50.766;2.900;2023-04-06T06:26:56;8.82;;;4.45;;
60851;SDS011;48553;50.766;2.900;2023-04-06T06:29:56;10.55;;;4.50;;
60851;SDS011;48553;50.766;2.900;2023-04-06T06:32:57;9.70;;;5.10;;
60851;SDS011;48553;50.766;2.900;2023-04-06T06:35:57;10.55;;;4.65;;
60851;SDS011;48553;50.766;2.900;2023-04-06T06:38:58;10.68;;;5.20;;
60851;SDS011;48553;50.766;2.900;2023-04-06T06:41:59;10.48;;;5.78;;
60851;SDS011;48553;50.766;2.900;2023-04-06T06:45:01;9.30;;;5.28;;
60851;SDS011;48553;50.766;2.900;2023-04-06T06:48:01;12.38;;;5.65;;
60851;SDS011;48553;50.766;2.900;2023-04-06T06:51:02;11.52;;;5.75;;
60851;SDS011;48553;50.766;2.900;2023-04-06T06:54:03;12.20;;;5.72;;
60851;SDS011;48553;50.766;2.900;2023-04-06T06:57:03;12.25;;;6.55;;
60851;SDS011;48553;50.766;2.900;2023-04-06T07:00:04;12.75;;;6.10;;
60851;SDS011;48553;50.766;2.900;2023-04-06T07:03:06;13.63;;;6.15;;
60851;SDS011;48553;50.766;2.900;2023-04-06T07:06:06;12.18;;;6.55;;
60851;SDS011;48553;50.766;2.900;2023-04-06T07:09:07;15.70;;;7.22;;
60851;SDS011;48553;50.766;2.900;2023-04-06T07:12:07;14.77;;;7.13;;
60851;SDS011;48553;50.766;2.900;2023-04-06T07:15:07;14.75;;;7.15;;
60851;SDS011;48553;50.766;2.900;2023-04-06T07:18:08;17.75;;;7.57;;
60851;SDS011;48553;50.766;2.900;2023-04-06T07:21:09;17.27;;;7.95;;
60851;SDS011;48553;50.766;2.900;2023-04-06T07:24:09;15.63;;;7.72;;
60851;SDS011;48553;50.766;2.900;2023-04-06T07:27:09;16.15;;;7.85;;
60851;SDS011;48553;50.766;2.900;2023-04-06T07:30:10;18.98;;;8.52;;
60851;SDS011;48553;50.766;2.900;2023-04-06T07:33:11;20.63;;;8.10;;
60851;SDS011;48553;50.766;2.900;2023-04-06T07:36:11;14.77;;;7.68;;
60851;SDS011;48553;50.766;2.900;2023-04-06T07:39:12;17.88;;;8.52;;
60851;SDS011;48553;50.766;2.900;2023-04-06T07:42:12;20.30;;;8.93;;
60851;SDS011;48553;50.766;2.900;2023-04-06T07:45:13;20.15;;;8.52;;
60851;SDS011;48553;50.766;2.900;2023-04-06T07:48:13;20.90;;;9.38;;
60851;SDS011;48553;50.766;2.900;2023-04-06T07:51:14;15.77;;;8.48;;
60851;SDS011;48553;50.766;2.900;2023-04-06T07:54:14;22.83;;;9.30;;
60851;SDS011;48553;50.766;2.900;2023-04-06T07:57:15;15.95;;;8.48;;
60851;SDS011;48553;50.766;2.900;2023-04-06T08:00:15;20.45;;;9.27;;
60851;SDS011;48553;50.766;2.900;2023-04-06T08:03:16;18.52;;;9.05;;
60851;SDS011;48553;50.766;2.900;2023-04-06T08:06:17;20.77;;;9.40;;
60851;SDS011;48553;50.766;2.900;2023-04-06T08:09:17;22.50;;;9.80;;
60851;SDS011;48553;50.766;2.900;2023-04-06T08:12:18;21.25;;;9.38;;
60851;SDS011;48553;50.766;2.900;2023-04-06T08:15:18;20.85;;;9.77;;
60851;SDS011;48553;50.766;2.900;2023-04-06T08:18:19;21.15;;;10.27;;
60851;SDS011;48553;50.766;2.900;2023-04-06T08:21:19;19.73;;;9.93;;
60851;SDS011;48553;50.766;2.900;2023-04-06T08:24:20;20.13;;;10.20;;
60851;SDS011;48553;50.766;2.900;2023-04-06T08:27:20;19.83;;;10.10;;
60851;SDS011;48553;50.766;2.900;2023-04-06T08:30:21;18.88;;;10.70;;
60851;SDS011;48553;50.766;2.900;2023-04-06T08:33:21;20.70;;;10.52;;
60851;SDS011;48553;50.766;2.900;2023-04-06T08:36:22;23.60;;;11.45;;
60851;SDS011;48553;50.766;2.900;2023-04-06T08:39:22;21.80;;;11.25;;
60851;SDS011;48553;50.766;2.900;2023-04-06T08:42:25;20.60;;;11.07;;
60851;SDS011;48553;50.766;2.900;2023-04-06T08:45:26;21.38;;;11.35;;
60851;SDS011;48553;50.766;2.900;2023-04-06T08:48:26;21.83;;;11.23;;
60851;SDS011;48553;50.766;2.900;2023-04-06T08:51:28;20.05;;;11.15;;
60851;SDS011;48553;50.766;2.900;2023-04-06T08:54:30;21.27;;;11.40;;
60851;SDS011;48553;50.766;2.900;2023-04-06T08:57:30;20.20;;;11.27;;
60851;SDS011;48553;50.766;2.900;2023-04-06T09:00:31;20.33;;;11.05;;
60851;SDS011;48553;50.766;2.900;2023-04-06T09:03:32;19.10;;;10.95;;
60851;SDS011;48553;50.766;2.900;2023-04-06T09:06:39;23.33;;;11.25;;
60851;SDS011;48553;50.766;2.900;2023-04-06T09:09:40;19.77;;;11.20;;
60851;SDS011;48553;50.766;2.900;2023-04-06T09:12:47;21.52;;;11.38;;
60851;SDS011;48553;50.766;2.900;2023-04-06T09:15:57;19.05;;;10.70;;
60851;SDS011;48553;50.766;2.900;2023-04-06T09:19:06;18.63;;;10.35;;
60851;SDS011;48553;50.766;2.900;2023-04-06T09:22:06;19.63;;;10.68;;
60851;SDS011;48553;50.766;2.900;2023-04-06T09:25:08;17.55;;;9.93;;
60851;SDS011;48553;50.766;2.900;2023-04-06T09:28:09;20.83;;;10.55;;
60851;SDS011;48553;50.766;2.900;2023-04-06T09:31:10;20.52;;;11.20;;
60851;SDS011;48553;50.766;2.900;2023-04-06T09:34:19;19.70;;;10.38;;
60851;SDS011;48553;50.766;2.900;2023-04-06T09:37:20;20.17;;;10.95;;
60851;SDS011;48553;50.766;2.900;2023-04-06T09:40:21;18.15;;;10.45;;
60851;SDS011;48553;50.766;2.900;2023-04-06T09:43:28;20.13;;;10.75;;
60851;SDS011;48553;50.766;2.900;2023-04-06T09:46:36;18.92;;;11.02;;
60851;SDS011;48553;50.766;2.900;2023-04-06T09:49:41;18.45;;;10.70;;
60851;SDS011;48553;50.766;2.900;2023-04-06T09:52:47;22.40;;;10.75;;
60851;SDS011;48553;50.766;2.900;2023-04-06T09:55:49;19.42;;;10.55;;
60851;SDS011;48553;50.766;2.900;2023-04-06T09:59:01;19.55;;;10.00;;
60851;SDS011;48553;50.766;2.900;2023-04-06T10:02:03;18.40;;;10.13;;
60851;SDS011;48553;50.766;2.900;2023-04-06T10:05:09;16.70;;;9.82;;
60851;SDS011;48553;50.766;2.900;2023-04-06T10:08:13;16.48;;;9.43;;
60851;SDS011;48553;50.766;2.900;2023-04-06T10:11:13;16.48;;;9.27;;
60851;SDS011;48553;50.766;2.900;2023-04-06T10:14:15;15.82;;;9.00;;
60851;SDS011;48553;50.766;2.900;2023-04-06T10:17:16;15.68;;;9.18;;
60851;SDS011;48553;50.766;2.900;2023-04-06T10:24:06;15.65;;;8.23;;
60851;SDS011;48553;50.766;2.900;2023-04-06T10:27:06;15.70;;;9.00;;
60851;SDS011;48553;50.766;2.900;2023-04-06T10:30:10;14.07;;;8.02;;
60851;SDS011;48553;50.766;2.900;2023-04-06T10:33:16;17.83;;;8.30;;
60851;SDS011;48553;50.766;2.900;2023-04-06T10:36:22;14.23;;;8.02;;
60851;SDS011;48553;50.766;2.900;2023-04-06T10:39:24;13.57;;;7.82;;
60851;SDS011;48553;50.766;2.900;2023-04-06T10:42:35;14.70;;;8.50;;
60851;SDS011;48553;50.766;2.900;2023-04-06T10:45:37;13.73;;;7.70;;
60851;SDS011;48553;50.766;2.900;2023-04-06T10:48:44;12.23;;;7.40;;
60851;SDS011;48553;50.766;2.900;2023-04-06T10:51:51;13.68;;;7.28;;
60851;SDS011;48553;50.766;2.900;2023-04-06T10:54:53;12.23;;;6.97;;
60851;SDS011;48553;50.766;2.900;2023-04-06T10:57:56;13.27;;;7.20;;
60851;SDS011;48553;50.766;2.900;2023-04-06T11:00:56;13.68;;;7.18;;
60851;SDS011;48553;50.766;2.900;2023-04-06T11:03:57;14.38;;;7.72;;
60851;SDS011;48553;50.766;2.900;2023-04-06T11:07:01;13.68;;;7.03;;
60851;SDS011;48553;50.766;2.900;2023-04-06T11:10:01;13.82;;;7.68;;
60851;SDS011;48553;50.766;2.900;2023-04-06T11:13:02;12.50;;;7.15;;
60851;SDS011;48553;50.766;2.900;2023-04-06T11:16:03;12.50;;;7.10;;
60851;SDS011;48553;50.766;2.900;2023-04-06T11:19:04;12.00;;;6.72;;
60851;SDS011;48553;50.766;2.900;2023-04-06T11:22:09;12.13;;;6.68;;
60851;SDS011;48553;50.766;2.900;2023-04-06T11:25:09;12.02;;;6.75;;
60851;SDS011;48553;50.766;2.900;2023-04-06T11:28:10;12.90;;;7.03;;
60851;SDS011;48553;50.766;2.900;2023-04-06T11:31:11;10.95;;;6.63;;
60851;SDS011;48553;50.766;2.900;2023-04-06T11:34:15;12.55;;;6.57;;
60851;SDS011;48553;50.766;2.900;2023-04-06T11:37:17;10.23;;;6.05;;
60851;SDS011;48553;50.766;2.900;2023-04-06T11:40:21;11.73;;;5.82;;
60851;SDS011;48553;50.766;2.900;2023-04-06T11:43:26;10.23;;;5.85;;
60851;SDS011;48553;50.766;2.900;2023-04-06T11:49:28;10.00;;;5.22;;
60851;SDS011;48553;50.766;2.900;2023-04-06T11:52:30;8.38;;;4.97;;
60851;SDS011;48553;50.766;2.900;2023-04-06T11:55:36;9.13;;;4.85;;
60851;SDS011;48553;50.766;2.900;2023-04-06T11:58:38;10.13;;;4.63;;
60851;SDS011;48553;50.766;2.900;2023-04-06T12:01:44;8.68;;;4.57;;
60851;SDS011;48553;50.766;2.900;2023-04-06T12:04:45;8.25;;;4.10;;
60851;SDS011;48553;50.766;2.900;2023-04-06T12:07:46;9.85;;;4.35;;
60851;SDS011;48553;50.766;2.900;2023-04-06T12:10:46;9.77;;;3.88;;
60851;SDS011;48553;50.766;2.900;2023-04-06T12:13:46;9.80;;;3.47;;
60851;SDS011;48553;50.766;2.900;2023-04-06T12:16:47;7.18;;;3.72;;
60851;SDS011;48553;50.766;2.900;2023-04-06T12:19:48;6.00;;;3.13;;
60851;SDS011;48553;50.766;2.900;2023-04-06T12:22:48;8.30;;;3.53;;
60851;SDS011;48553;50.766;2.900;2023-04-06T12:25:48;9.75;;;3.55;;
60851;SDS011;48553;50.766;2.900;2023-04-06T12:28:49;9.90;;;3.63;;
60851;SDS011;48553;50.766;2.900;2023-04-06T12:31:50;10.82;;;3.80;;
60851;SDS011;48553;50.766;2.900;2023-04-06T12:34:51;10.98;;;3.45;;
60851;SDS011;48553;50.766;2.900;2023-04-06T12:37:53;7.28;;;2.55;;
60851;SDS011;48553;50.766;2.900;2023-04-06T12:40:53;7.97;;;2.60;;
60851;SDS011;48553;50.766;2.900;2023-04-06T12:43:54;7.05;;;2.45;;
60851;SDS011;48553;50.766;2.900;2023-04-06T12:46:54;8.57;;;2.25;;
60851;SDS011;48553;50.766;2.900;2023-04-06T12:49:55;8.27;;;2.53;;
60851;SDS011;48553;50.766;2.900;2023-04-06T12:52:56;6.80;;;2.15;;
60851;SDS011;48553;50.766;2.900;2023-04-06T12:55:57;7.68;;;2.20;;
60851;SDS011;48553;50.766;2.900;2023-04-06T12:58:58;7.45;;;2.13;;
60851;SDS011;48553;50.766;2.900;2023-04-06T13:01:58;6.28;;;2.10;;
60851;SDS011;48553;50.766;2.900;2023-04-06T13:04:59;7.60;;;2.38;;
60851;SDS011;48553;50.766;2.900;2023-04-06T13:07:59;11.02;;;2.85;;
60851;SDS011;48553;50.766;2.900;2023-04-06T13:11:00;8.77;;;2.80;;
60851;SDS011;48553;50.766;2.900;2023-04-06T13:14:00;9.05;;;2.53;;
60851;SDS011;48553;50.766;2.900;2023-04-06T13:17:01;9.32;;;2.80;;
60851;SDS011;48553;50.766;2.900;2023-04-06T13:20:01;10.95;;;2.33;;
60851;SDS011;48553;50.766;2.900;2023-04-06T13:23:03;10.55;;;2.33;;
60851;SDS011;48553;50.766;2.900;2023-04-06T13:26:04;13.68;;;2.58;;
60851;SDS011;48553;50.766;2.900;2023-04-06T13:29:06;12.52;;;2.20;;
60851;SDS011;48553;50.766;2.900;2023-04-06T13:32:06;9.55;;;1.98;;
60851;SDS011;48553;50.766;2.900;2023-04-06T13:35:09;9.68;;;2.40;;
60851;SDS011;48553;50.766;2.900;2023-04-06T13:38:10;11.07;;;2.28;;
60851;SDS011;48553;50.766;2.900;2023-04-06T13:41:17;16.52;;;2.70;;
60851;SDS011;48553;50.766;2.900;2023-04-06T13:44:20;10.93;;;2.22;;
60851;SDS011;48553;50.766;2.900;2023-04-06T13:47:21;9.77;;;2.15;;
60851;SDS011;48553;50.766;2.900;2023-04-06T13:50:21;15.75;;;2.38;;
60851;SDS011;48553;50.766;2.900;2023-04-06T13:53:22;10.27;;;2.38;;
60851;SDS011;48553;50.766;2.900;2023-04-06T13:56:22;9.68;;;2.20;;
60851;SDS011;48553;50.766;2.900;2023-04-06T13:59:23;12.10;;;2.28;;
60851;SDS011;48553;50.766;2.900;2023-04-06T14:02:23;14.82;;;2.75;;
60851;SDS011;48553;50.766;2.900;2023-04-06T14:05:30;11.32;;;2.30;;
60851;SDS011;48553;50.766;2.900;2023-04-06T14:08:31;12.55;;;2.50;;
60851;SDS011;48553;50.766;2.900;2023-04-06T14:11:32;10.25;;;2.33;;
60851;SDS011;48553;50.766;2.900;2023-04-06T14:14:32;12.10;;;2.83;;
60851;SDS011;48553;50.766;2.900;2023-04-06T14:17:33;10.80;;;2.50;;
60851;SDS011;48553;50.766;2.900;2023-04-06T14:20:33;7.78;;;2.25;;
60851;SDS011;48553;50.766;2.900;2023-04-06T14:23:34;10.68;;;2.97;;
60851;SDS011;48553;50.766;2.900;2023-04-06T14:26:35;11.05;;;2.83;;
60851;SDS011;48553;50.766;2.900;2023-04-06T14:29:36;11.07;;;2.72;;
60851;SDS011;48553;50.766;2.900;2023-04-06T14:32:36;9.73;;;2.70;;
60851;SDS011;48553;50.766;2.900;2023-04-06T14:35:38;18.38;;;3.30;;
60851;SDS011;48553;50.766;2.900;2023-04-06T14:38:38;15.50;;;3.00;;
60851;SDS011;48553;50.766;2.900;2023-04-06T14:41:40;14.27;;;3.53;;
60851;SDS011;48553;50.766;2.900;2023-04-06T14:44:40;12.15;;;3.10;;
60851;SDS011;48553;50.766;2.900;2023-04-06T14:47:42;12.35;;;2.83;;
60851;SDS011;48553;50.766;2.900;2023-04-06T14:50:52;14.07;;;3.05;;
60851;SDS011;48553;50.766;2.900;2023-04-06T14:53:55;13.27;;;3.30;;
60851;SDS011;48553;50.766;2.900;2023-04-06T14:56:56;9.45;;;3.17;;
60851;SDS011;48553;50.766;2.900;2023-04-06T14:59:56;12.07;;;3.45;;
60851;SDS011;48553;50.766;2.900;2023-04-06T15:02:57;10.88;;;3.10;;
60851;SDS011;48553;50.766;2.900;2023-04-06T15:05:58;15.10;;;3.63;;
60851;SDS011;48553;50.766;2.900;2023-04-06T15:08:58;14.90;;;3.83;;
60851;SDS011;48553;50.766;2.900;2023-04-06T15:11:59;12.75;;;3.33;;
60851;SDS011;48553;50.766;2.900;2023-04-06T15:15:00;13.32;;;3.38;;
60851;SDS011;48553;50.766;2.900;2023-04-06T15:18:01;13.52;;;3.47;;
60851;SDS011;48553;50.766;2.900;2023-04-06T15:21:02;11.80;;;3.05;;
60851;SDS011;48553;50.766;2.900;2023-04-06T15:24:02;10.63;;;3.40;;
60851;SDS011;48553;50.766;2.900;2023-04-06T15:27:06;8.55;;;3.20;;
60851;SDS011;48553;50.766;2.900;2023-04-06T15:30:06;10.05;;;3.33;;
60851;SDS011;48553;50.766;2.900;2023-04-06T15:33:07;14.05;;;3.20;;
60851;SDS011;48553;50.766;2.900;2023-04-06T15:36:16;11.77;;;3.22;;
60851;SDS011;48553;50.766;2.900;2023-04-06T15:42:24;17.15;;;3.20;;
60851;SDS011;48553;50.766;2.900;2023-04-06T15:45:24;14.40;;;3.08;;
60851;SDS011;48553;50.766;2.900;2023-04-06T15:48:25;12.13;;;3.08;;
60851;SDS011;48553;50.766;2.900;2023-04-06T15:51:25;13.40;;;3.22;;
60851;SDS011;48553;50.766;2.900;2023-04-06T15:54:26;11.73;;;2.97;;
60851;SDS011;48553;50.766;2.900;2023-04-06T15:57:26;11.50;;;3.08;;
60851;SDS011;48553;50.766;2.900;2023-04-06T16:00:27;14.25;;;2.92;;
60851;SDS011;48553;50.766;2.900;2023-04-06T16:03:28;13.07;;;2.90;;
60851;SDS011;48553;50.766;2.900;2023-04-06T16:06:28;13.63;;;3.22;;
60851;SDS011;48553;50.766;2.900;2023-04-06T16:09:31;13.15;;;3.13;;
60851;SDS011;48553;50.766;2.900;2023-04-06T16:12:31;14.32;;;3.25;;
60851;SDS011;48553;50.766;2.900;2023-04-06T16:15:33;20.42;;;3.70;;
60851;SDS011;48553;50.766;2.900;2023-04-06T16:18:34;14.50;;;3.05;;
60851;SDS011;48553;50.766;2.900;2023-04-06T16:21:34;11.68;;;2.97;;
60851;SDS011;48553;50.766;2.900;2023-04-06T16:24:36;18.33;;;3.17;;
60851;SDS011;48553;50.766;2.900;2023-04-06T16:27:37;13.88;;;3.33;;
60851;SDS011;48553;50.766;2.900;2023-04-06T16:30:38;18.83;;;3.63;;
60851;SDS011;48553;50.766;2.900;2023-04-06T16:33:39;14.57;;;2.83;;
60851;SDS011;48553;50.766;2.900;2023-04-06T16:36:41;10.10;;;2.80;;
60851;SDS011;48553;50.766;2.900;2023-04-06T16:39:41;13.48;;;2.80;;
60851;SDS011;48553;50.766;2.900;2023-04-06T16:42:42;11.20;;;2.42;;
60851;SDS011;48553;50.766;2.900;2023-04-06T16:45:48;12.60;;;2.75;;
60851;SDS011;48553;50.766;2.900;2023-04-06T16:48:49;12.20;;;2.85;;
60851;SDS011;48553;50.766;2.900;2023-04-06T16:51:50;8.90;;;2.08;;
60851;SDS011;48553;50.766;2.900;2023-04-06T16:54:50;9.95;;;2.10;;
60851;SDS011;48553;50.766;2.900;2023-04-06T16:57:53;12.13;;;2.20;;
60851;SDS011;48553;50.766;2.900;2023-04-06T17:00:54;10.02;;;2.20;;
60851;SDS011;48553;50.766;2.900;2023-04-06T17:03:55;10.38;;;2.40;;
60851;SDS011;48553;50.766;2.900;2023-04-06T17:06:55;11.32;;;2.13;;
60851;SDS011;48553;50.766;2.900;2023-04-06T17:09:57;10.48;;;2.22;;
60851;SDS011;48553;50.766;2.900;2023-04-06T17:12:58;13.93;;;2.70;;
60851;SDS011;48553;50.766;2.900;2023-04-06T17:15:59;9.95;;;2.15;;
60851;SDS011;48553;50.766;2.900;2023-04-06T17:19:00;13.15;;;2.85;;
60851;SDS011;48553;50.766;2.900;2023-04-06T17:22:01;15.68;;;2.90;;
60851;SDS011;48553;50.766;2.900;2023-04-06T17:25:01;15.82;;;2.63;;
60851;SDS011;48553;50.766;2.900;2023-04-06T17:28:04;15.05;;;3.10;;
60851;SDS011;48553;50.766;2.900;2023-04-06T17:31:08;13.60;;;3.05;;
60851;SDS011;48553;50.766;2.900;2023-04-06T17:37:10;16.35;;;2.70;;
60851;SDS011;48553;50.766;2.900;2023-04-06T17:40:11;15.45;;;2.80;;
60851;SDS011;48553;50.766;2.900;2023-04-06T17:43:11;14.07;;;2.42;;
60851;SDS011;48553;50.766;2.900;2023-04-06T17:46:12;11.60;;;2.40;;
60851;SDS011;48553;50.766;2.900;2023-04-06T17:49:13;12.50;;;2.42;;
60851;SDS011;48553;50.766;2.900;2023-04-06T17:52:13;12.40;;;2.70;;
60851;SDS011;48553;50.766;2.900;2023-04-06T17:55:16;14.90;;;2.50;;
60851;SDS011;48553;50.766;2.900;2023-04-06T17:58:20;14.85;;;2.30;;
60851;SDS011;48553;50.766;2.900;2023-04-06T18:01:21;11.82;;;2.25;;
60851;SDS011;48553;50.766;2.900;2023-04-06T18:04:22;14.88;;;2.53;;
60851;SDS011;48553;50.766;2.900;2023-04-06T18:07:22;11.70;;;2.15;;